createdAt,value
2022-09-21T00:00:00.121Z,83.20
2022-09-21T00:02:02.956Z,83.20
2022-09-21T00:04:08.864Z,83.80
2022-09-21T00:06:14.765Z,83.90
2022-09-21T00:08:17.537Z,83.20
2022-09-21T00:10:20.996Z,83.30
2022-09-21T00:12:23.695Z,83.40
2022-09-21T00:14:26.355Z,83.50
2022-09-21T00:16:29.896Z,83.60
2022-09-21T00:18:32.919Z,83.90
2022-09-21T00:20:35.580Z,83.90
2022-09-21T00:22:39.640Z,83.70
2022-09-21T00:24:42.297Z,83.70
2022-09-21T00:26:44.981Z,83.60
2022-09-21T00:28:49.346Z,83.40
2022-09-21T00:30:51.992Z,83.50
2022-09-21T00:32:55.700Z,83.60
2022-09-21T00:35:00.009Z,83.50
2022-09-21T00:37:02.726Z,83.50
2022-09-21T00:39:06.755Z,83.60
2022-09-21T00:41:10.960Z,83.80
2022-09-21T00:43:15.332Z,83.80
2022-09-21T00:45:21.875Z,83.80
2022-09-21T00:47:29.651Z,83.70
2022-09-21T00:49:34.633Z,83.70
2022-09-21T00:51:37.851Z,83.70
2022-09-21T00:53:40.622Z,83.60
2022-09-21T00:55:49.947Z,83.50
2022-09-21T00:57:56.832Z,83.50
2022-09-21T01:00:03.674Z,83.10
2022-09-21T01:02:07.072Z,83.30
2022-09-21T01:04:11.731Z,83.10
2022-09-21T01:06:15.736Z,83.00
2022-09-21T01:08:20.879Z,82.90
2022-09-21T01:10:25.096Z,82.90
2022-09-21T01:12:48.252Z,82.80
2022-09-21T01:15:20.315Z,82.80
2022-09-21T01:17:36.274Z,82.70
2022-09-21T01:20:01.077Z,82.90
2022-09-21T01:22:12.024Z,83.20
2022-09-21T01:24:40.160Z,82.60
2022-09-21T01:27:13.354Z,82.40
2022-09-21T01:29:23.443Z,82.40
2022-09-21T01:31:32.409Z,82.30
2022-09-21T01:33:39.907Z,82.20
2022-09-21T01:35:47.813Z,81.90
2022-09-21T01:37:54.218Z,81.90
2022-09-21T01:40:01.985Z,81.80
2022-09-21T01:42:08.455Z,81.90
2022-09-21T01:44:16.152Z,81.80
2022-09-21T01:46:23.152Z,81.80
2022-09-21T01:48:26.912Z,81.60
2022-09-21T01:50:35.391Z,81.70
2022-09-21T01:52:43.094Z,81.90
2022-09-21T01:54:50.129Z,81.80
2022-09-21T01:57:01.074Z,81.80
2022-09-21T01:59:10.339Z,81.90
2022-09-21T02:01:18.086Z,81.90
2022-09-21T02:03:27.582Z,81.90
2022-09-21T02:05:31.399Z,81.80
2022-09-21T02:07:35.067Z,81.80
2022-09-21T02:09:38.549Z,81.70
2022-09-21T02:11:43.852Z,81.70
2022-09-21T02:13:49.650Z,81.50
2022-09-21T02:16:05.972Z,81.70
2022-09-21T02:18:18.567Z,81.70
2022-09-21T02:20:27.818Z,81.60
2022-09-21T02:22:37.970Z,81.50
2022-09-21T02:24:44.418Z,81.50
2022-09-21T02:26:54.559Z,81.50
2022-09-21T02:29:06.615Z,81.50
2022-09-21T02:31:17.920Z,81.40
2022-09-21T02:33:27.436Z,81.00
2022-09-21T02:35:36.432Z,81.10
2022-09-21T02:37:45.920Z,81.40
2022-09-21T02:39:56.163Z,81.60
2022-09-21T02:42:05.322Z,81.60
2022-09-21T02:44:12.963Z,81.70
2022-09-21T02:46:19.122Z,81.70
2022-09-21T02:48:25.292Z,81.90
2022-09-21T02:50:34.852Z,81.80
2022-09-21T02:52:40.702Z,81.70
2022-09-21T02:54:47.858Z,81.80
2022-09-21T02:56:51.527Z,81.90
2022-09-21T02:58:59.356Z,81.90
2022-09-21T03:01:04.310Z,81.90
2022-09-21T03:03:17.170Z,81.70
2022-09-21T03:05:19.890Z,81.80
2022-09-21T03:07:22.886Z,81.90
2022-09-21T03:09:26.902Z,82.60
2022-09-21T03:11:29.582Z,82.00
2022-09-21T03:13:32.619Z,81.90
2022-09-21T03:15:35.585Z,81.90
2022-09-21T03:17:38.281Z,81.90
2022-09-21T03:19:41.016Z,82.60
2022-09-21T03:21:44.796Z,82.10
2022-09-21T03:23:47.678Z,81.90
2022-09-21T03:25:53.186Z,81.80
2022-09-21T03:27:56.332Z,81.90
2022-09-21T03:30:02.212Z,81.80
2022-09-21T03:32:05.986Z,81.80
2022-09-21T03:34:08.762Z,81.70
2022-09-21T03:36:11.538Z,81.70
2022-09-21T03:38:14.286Z,81.70
2022-09-21T03:40:18.028Z,81.50
2022-09-21T03:42:22.150Z,81.40
2022-09-21T03:44:25.798Z,81.40
2022-09-21T03:46:28.548Z,81.40
2022-09-21T03:48:32.573Z,81.50
2022-09-21T03:50:35.302Z,81.50
2022-09-21T03:52:39.208Z,81.30
2022-09-21T03:54:41.886Z,81.20
2022-09-21T03:56:44.885Z,81.30
2022-09-21T03:58:48.986Z,81.20
2022-09-21T04:00:52.746Z,81.40
2022-09-21T04:02:56.162Z,81.60
2022-09-21T04:04:58.923Z,81.80
2022-09-21T04:07:01.813Z,81.80
2022-09-21T04:09:04.780Z,81.60
2022-09-21T04:11:11.840Z,81.50
2022-09-21T04:13:17.867Z,81.70
2022-09-21T04:15:21.868Z,81.90
2022-09-21T04:17:24.716Z,81.70
2022-09-21T04:19:27.388Z,81.60
2022-09-21T04:21:30.910Z,81.80
2022-09-21T04:23:33.674Z,81.70
2022-09-21T04:25:36.700Z,81.80
2022-09-21T04:27:39.964Z,81.90
2022-09-21T04:29:42.768Z,81.90
2022-09-21T04:31:46.761Z,82.10
2022-09-21T04:33:50.604Z,82.10
2022-09-21T04:35:56.504Z,82.10
2022-09-21T04:37:59.634Z,82.00
2022-09-21T04:40:02.871Z,82.20
2022-09-21T04:42:06.012Z,82.40
2022-09-21T04:44:08.826Z,83.00
2022-09-21T04:46:13.295Z,82.30
2022-09-21T04:48:17.989Z,82.40
2022-09-21T04:50:20.748Z,82.30
2022-09-21T04:52:23.444Z,82.40
2022-09-21T04:54:26.134Z,82.50
2022-09-21T04:56:28.785Z,82.60
2022-09-21T04:58:31.929Z,82.70
2022-09-21T05:00:34.644Z,83.00
2022-09-21T05:02:37.348Z,83.10
2022-09-21T05:04:41.376Z,83.20
2022-09-21T05:06:44.062Z,83.30
2022-09-21T05:09:04.213Z,83.40
2022-09-21T05:11:07.326Z,83.40
2022-09-21T05:13:10.058Z,83.30
2022-09-21T05:15:13.129Z,83.40
2022-09-21T05:17:15.993Z,83.60
2022-09-21T05:19:18.801Z,83.70
2022-09-21T05:21:22.987Z,83.60
2022-09-21T05:23:26.437Z,83.80
2022-09-21T05:25:29.174Z,84.00
2022-09-21T05:27:31.903Z,84.00
2022-09-21T05:29:35.229Z,83.90
2022-09-21T05:31:43.354Z,84.20
2022-09-21T05:33:52.539Z,84.40
2022-09-21T05:36:03.670Z,84.20
2022-09-21T05:38:12.673Z,84.10
2022-09-21T05:40:16.086Z,84.20
2022-09-21T05:42:20.952Z,84.30
2022-09-21T05:44:28.257Z,84.30
2022-09-21T05:46:43.925Z,84.50
2022-09-21T05:49:09.864Z,84.60
2022-09-21T05:51:38.345Z,84.60
2022-09-21T05:53:58.450Z,84.40
2022-09-21T05:56:05.036Z,84.50
2022-09-21T05:58:18.564Z,84.40
2022-09-21T06:00:23.729Z,84.70
2022-09-21T06:02:43.091Z,84.80
2022-09-21T06:04:47.458Z,85.10
2022-09-21T06:06:50.194Z,85.00
2022-09-21T06:08:54.232Z,85.00
2022-09-21T06:10:57.314Z,85.00
2022-09-21T06:13:00.175Z,84.90
2022-09-21T06:15:02.862Z,84.90
2022-09-21T06:17:05.850Z,85.00
2022-09-21T06:19:12.418Z,84.90
2022-09-21T06:21:15.179Z,84.90
2022-09-21T06:23:17.858Z,85.00
2022-09-21T06:25:22.020Z,84.80
2022-09-21T06:27:24.795Z,85.10
2022-09-21T06:29:31.202Z,85.10
2022-09-21T06:31:34.872Z,85.30
2022-09-21T06:33:39.659Z,85.50
2022-09-21T06:35:42.444Z,85.60
2022-09-21T06:37:46.383Z,85.60
2022-09-21T06:39:49.053Z,85.50
2022-09-21T06:41:54.003Z,85.40
2022-09-21T06:43:57.771Z,85.40
2022-09-21T06:46:02.189Z,85.80
2022-09-21T06:48:05.046Z,85.50
2022-09-21T06:50:08.733Z,85.80
2022-09-21T06:52:11.430Z,86.00
2022-09-21T06:54:14.165Z,86.00
2022-09-21T06:56:16.900Z,86.30
2022-09-21T06:58:21.004Z,86.30
2022-09-21T07:00:23.687Z,86.40
2022-09-21T07:02:26.432Z,86.40
2022-09-21T07:04:29.415Z,86.30
2022-09-21T07:06:32.404Z,86.40
2022-09-21T07:10:59.307Z,86.60
2022-09-21T07:13:04.382Z,86.70
2022-09-21T07:15:10.273Z,86.80
2022-09-21T07:17:15.453Z,86.60
2022-09-21T07:19:19.142Z,86.60
2022-09-21T07:21:22.805Z,86.70
2022-09-21T07:23:25.502Z,86.60
2022-09-21T07:25:29.036Z,87.30
2022-09-21T07:27:32.912Z,87.40
2022-09-21T07:29:35.592Z,87.40
2022-09-21T07:31:39.736Z,87.30
2022-09-21T07:33:42.693Z,87.50
2022-09-21T07:35:52.206Z,87.90
2022-09-21T07:37:56.895Z,88.00
2022-09-21T07:39:59.760Z,87.20
2022-09-21T07:42:02.581Z,87.70
2022-09-21T07:44:05.468Z,87.70
2022-09-21T07:46:08.682Z,88.30
2022-09-21T07:48:13.269Z,88.60
2022-09-21T07:50:16.089Z,88.50
2022-09-21T07:52:19.335Z,88.60
2022-09-21T07:54:22.025Z,88.30
2022-09-21T07:56:25.167Z,88.70
2022-09-21T07:58:45.520Z,88.70
2022-09-21T08:00:48.295Z,88.80
2022-09-21T08:02:51.317Z,89.30
2022-09-21T08:04:55.475Z,88.70
2022-09-21T08:06:58.170Z,89.20
2022-09-21T08:09:01.009Z,88.60
2022-09-21T08:11:04.962Z,89.00
2022-09-21T08:13:07.689Z,89.30
2022-09-21T08:15:30.545Z,89.40
2022-09-21T08:17:34.078Z,89.60
2022-09-21T08:19:36.981Z,89.40
2022-09-21T08:21:41.048Z,89.10
2022-09-21T08:23:43.772Z,89.50
2022-09-21T08:25:46.429Z,90.00
2022-09-21T08:27:49.203Z,89.40
2022-09-21T08:29:51.923Z,89.10
2022-09-21T08:31:54.709Z,89.10
2022-09-21T08:33:58.136Z,89.20
2022-09-21T08:36:02.426Z,89.80
2022-09-21T08:38:06.464Z,89.80
2022-09-21T08:40:11.121Z,89.80
2022-09-21T08:42:32.849Z,90.00
2022-09-21T08:44:41.773Z,89.60
2022-09-21T08:46:47.459Z,89.70
2022-09-21T08:48:55.289Z,90.00
2022-09-21T08:51:02.642Z,89.40
2022-09-21T08:53:12.441Z,89.50
2022-09-21T08:55:19.778Z,90.00
2022-09-21T08:57:24.107Z,90.00
2022-09-21T08:59:27.000Z,90.00
2022-09-21T09:01:46.912Z,89.50
2022-09-21T09:04:05.992Z,89.60
2022-09-21T09:06:15.049Z,89.00
2022-09-21T09:08:49.717Z,88.80
2022-09-21T09:11:02.813Z,88.90
2022-09-21T09:13:21.880Z,89.40
2022-09-21T09:15:48.717Z,89.60
2022-09-21T09:17:58.214Z,89.50
2022-09-21T09:20:06.517Z,89.70
2022-09-21T09:22:17.811Z,89.90
2022-09-21T09:24:32.844Z,89.70
2022-09-21T09:26:42.721Z,89.10
2022-09-21T09:28:53.077Z,89.30
2022-09-21T09:31:00.855Z,88.90
2022-09-21T09:33:12.808Z,88.80
2022-09-21T09:35:25.503Z,89.00
2022-09-21T09:37:34.758Z,89.20
2022-09-21T09:39:39.673Z,89.40
2022-09-21T09:42:15.062Z,89.60
2022-09-21T09:44:31.733Z,89.10
2022-09-21T09:46:39.953Z,89.50
2022-09-21T09:49:02.044Z,89.50
2022-09-21T09:51:04.922Z,88.70
2022-09-21T09:53:12.686Z,89.30
2022-09-21T09:55:21.394Z,89.10
2022-09-21T09:57:31.754Z,88.80
2022-09-21T09:59:40.849Z,89.10
2022-09-21T10:01:46.482Z,88.80
2022-09-21T10:04:06.932Z,88.70
2022-09-21T10:06:31.324Z,88.50
2022-09-21T10:08:46.430Z,88.80
2022-09-21T10:10:53.193Z,88.50
2022-09-21T10:12:58.572Z,88.20
2022-09-21T10:15:01.687Z,88.00
2022-09-21T10:17:09.344Z,87.30
2022-09-21T10:19:18.653Z,87.30
2022-09-21T10:21:24.395Z,87.90
2022-09-21T10:23:29.454Z,87.70
2022-09-21T10:25:34.807Z,88.00
2022-09-21T10:27:46.471Z,88.30
2022-09-21T10:29:50.426Z,88.30
2022-09-21T10:31:56.822Z,87.60
2022-09-21T10:34:13.596Z,86.90
2022-09-21T10:36:31.817Z,87.80
2022-09-21T10:38:36.235Z,87.50
2022-09-21T10:40:40.494Z,86.40
2022-09-21T10:42:45.137Z,86.50
2022-09-21T10:44:49.756Z,85.10
2022-09-21T10:46:53.370Z,85.00
2022-09-21T10:48:56.339Z,85.20
2022-09-21T10:50:59.241Z,85.70
2022-09-21T10:53:11.951Z,85.70
2022-09-21T10:55:19.069Z,85.10
2022-09-21T10:57:24.172Z,85.40
2022-09-21T10:59:30.314Z,85.80
2022-09-21T11:01:33.544Z,85.30
2022-09-21T11:03:49.029Z,85.00
2022-09-21T11:05:55.428Z,85.20
2022-09-21T11:08:12.826Z,86.40
2022-09-21T11:10:22.458Z,86.60
2022-09-21T11:12:35.690Z,85.50
2022-09-21T11:14:48.767Z,85.80
2022-09-21T11:16:57.828Z,85.60
2022-09-21T11:19:08.909Z,85.70
2022-09-21T11:21:20.050Z,86.30
2022-09-21T11:23:35.802Z,84.80
2022-09-21T11:25:48.624Z,83.30
2022-09-21T11:28:01.142Z,83.80
2022-09-21T11:30:13.363Z,83.80
2022-09-21T11:32:40.320Z,83.30
2022-09-21T11:35:09.877Z,83.30
2022-09-21T11:37:22.500Z,83.50
2022-09-21T11:39:37.371Z,83.70
2022-09-21T11:42:00.469Z,83.70
2022-09-21T11:44:22.400Z,83.00
2022-09-21T11:46:35.189Z,82.40
2022-09-21T11:48:51.153Z,82.30
2022-09-21T11:51:07.551Z,80.50
2022-09-21T11:53:26.361Z,81.40
2022-09-21T11:55:53.170Z,80.60
2022-09-21T11:58:03.622Z,80.50
2022-09-21T12:00:15.652Z,79.60
2022-09-21T12:02:34.082Z,80.00
2022-09-21T12:04:45.355Z,80.70
2022-09-21T12:06:58.102Z,78.50
2022-09-21T12:09:19.562Z,80.30
2022-09-21T12:11:36.767Z,79.50
2022-09-21T12:13:49.242Z,79.50
2022-09-21T12:15:59.785Z,78.80
2022-09-21T12:18:09.920Z,79.70
2022-09-21T12:20:20.380Z,78.40
2022-09-21T12:22:29.438Z,78.70
2022-09-21T12:24:35.887Z,77.10
2022-09-21T12:26:42.801Z,77.50
2022-09-21T12:28:48.876Z,77.90
2022-09-21T12:31:00.447Z,76.70
2022-09-21T12:33:07.678Z,76.20
2022-09-21T12:35:17.249Z,77.40
2022-09-21T12:37:24.694Z,76.80
2022-09-21T12:39:30.815Z,77.90
2022-09-21T12:41:40.771Z,77.40
2022-09-21T12:43:48.677Z,76.70
2022-09-21T12:45:55.984Z,77.00
2022-09-21T12:48:05.060Z,76.50
2022-09-21T12:50:19.325Z,75.70
2022-09-21T12:52:25.301Z,74.80
2022-09-21T12:54:37.894Z,76.30
2022-09-21T12:56:46.258Z,75.60
2022-09-21T12:58:58.468Z,75.90
2022-09-21T13:01:09.119Z,76.20
2022-09-21T13:03:18.138Z,75.70
2022-09-21T13:05:32.773Z,75.40
2022-09-21T13:07:57.822Z,75.20
2022-09-21T13:10:02.939Z,75.60
2022-09-21T13:12:10.624Z,74.50
2022-09-21T13:14:14.249Z,73.80
2022-09-21T13:16:26.121Z,74.10
2022-09-21T13:18:35.799Z,74.20
2022-09-21T13:20:41.815Z,73.30
2022-09-21T13:22:45.870Z,74.00
2022-09-21T13:25:01.344Z,73.80
2022-09-21T13:27:09.282Z,73.70
2022-09-21T13:29:40.470Z,73.90
2022-09-21T13:31:57.440Z,72.80
2022-09-21T13:34:24.054Z,74.20
2022-09-21T13:36:38.683Z,74.80
2022-09-21T13:39:17.349Z,75.10
2022-09-21T13:41:45.419Z,74.00
2022-09-21T13:44:04.376Z,73.50
2022-09-21T13:46:08.471Z,73.50
2022-09-21T13:48:19.760Z,73.60
2022-09-21T13:50:25.988Z,73.70
2022-09-21T13:52:39.383Z,73.80
2022-09-21T13:54:50.896Z,73.10
2022-09-21T13:57:16.390Z,73.00
2022-09-21T13:59:25.143Z,72.90
2022-09-21T14:01:49.214Z,72.50
2022-09-21T14:03:54.953Z,72.40
2022-09-21T14:06:07.241Z,72.50
2022-09-21T14:08:23.867Z,72.30
2022-09-21T14:10:29.296Z,72.30
2022-09-21T14:12:38.836Z,72.20
2022-09-21T14:14:42.288Z,71.30
2022-09-21T14:16:53.253Z,70.70
2022-09-21T14:18:56.596Z,70.40
2022-09-21T14:21:19.901Z,69.80
2022-09-21T14:23:31.021Z,70.40
2022-09-21T14:25:52.157Z,69.70
2022-09-21T14:28:01.548Z,70.10
2022-09-21T14:30:08.367Z,71.40
2022-09-21T14:32:17.383Z,70.90
2022-09-21T14:34:24.748Z,71.10
2022-09-21T14:36:34.512Z,70.30
2022-09-21T14:38:51.147Z,69.80
2022-09-21T14:41:00.179Z,69.90
2022-09-21T14:43:08.022Z,69.70
2022-09-21T14:45:18.093Z,69.90
2022-09-21T14:47:41.990Z,69.90
2022-09-21T14:50:15.515Z,70.40
2022-09-21T14:52:32.149Z,69.00
2022-09-21T14:54:49.706Z,69.80
2022-09-21T14:57:24.374Z,69.80
2022-09-21T14:59:43.077Z,69.00
2022-09-21T15:01:59.629Z,69.60
2022-09-21T15:04:24.248Z,69.20
2022-09-21T15:06:49.824Z,69.00
2022-09-21T15:09:19.379Z,68.90
2022-09-21T15:11:27.860Z,69.70
2022-09-21T15:13:58.337Z,70.40
2022-09-21T15:16:17.853Z,70.30
2022-09-21T15:18:23.571Z,69.80
2022-09-21T15:20:28.350Z,69.90
2022-09-21T15:22:31.903Z,70.20
2022-09-21T15:24:35.406Z,69.50
2022-09-21T15:26:40.814Z,69.40
2022-09-21T15:29:08.282Z,69.60
2022-09-21T15:31:20.121Z,69.00
2022-09-21T15:33:24.407Z,69.10
2022-09-21T15:35:28.949Z,68.90
2022-09-21T15:37:36.354Z,67.80
2022-09-21T15:39:41.194Z,68.10
2022-09-21T15:41:48.002Z,68.40
2022-09-21T15:43:57.927Z,67.50
2022-09-21T15:46:03.522Z,68.10
2022-09-21T15:48:13.140Z,67.80
2022-09-21T15:50:20.157Z,68.40
2022-09-21T15:52:28.931Z,68.50
2022-09-21T15:54:35.464Z,68.40
2022-09-21T15:56:40.540Z,68.80
2022-09-21T15:58:47.636Z,69.00
2022-09-21T16:00:55.602Z,69.00
2022-09-21T16:03:17.460Z,68.20
2022-09-21T16:05:23.485Z,68.20
2022-09-21T16:07:30.727Z,67.80
2022-09-21T16:09:41.044Z,67.60
2022-09-21T16:11:43.807Z,67.80
2022-09-21T16:14:06.875Z,68.40
2022-09-21T16:16:11.980Z,68.20
2022-09-21T16:18:35.261Z,67.80
2022-09-21T16:20:44.513Z,68.00
2022-09-21T16:22:48.802Z,67.80
2022-09-21T16:24:55.343Z,66.90
2022-09-21T16:26:59.906Z,67.40
2022-09-21T16:29:23.502Z,67.80
2022-09-21T16:31:37.321Z,68.30
2022-09-21T16:33:43.910Z,68.20
2022-09-21T16:35:46.742Z,68.10
2022-09-21T16:37:50.045Z,68.10
2022-09-21T16:39:53.973Z,67.90
2022-09-21T16:41:59.957Z,68.00
2022-09-21T16:44:03.557Z,68.30
2022-09-21T16:46:08.598Z,68.80
2022-09-21T16:48:13.765Z,68.90
2022-09-21T16:50:20.281Z,69.10
2022-09-21T16:52:23.232Z,69.40
2022-09-21T16:54:27.215Z,69.30
2022-09-21T16:56:31.231Z,69.20
2022-09-21T16:58:33.918Z,69.30
2022-09-21T17:00:42.205Z,69.60
2022-09-21T17:02:46.422Z,70.00
2022-09-21T17:04:49.148Z,70.10
2022-09-21T17:06:52.761Z,70.40
2022-09-21T17:08:55.557Z,70.50
2022-09-21T17:10:59.810Z,70.30
2022-09-21T17:13:04.406Z,70.50
2022-09-21T17:15:09.939Z,70.80
2022-09-21T17:17:14.806Z,71.20
2022-09-21T17:19:20.378Z,71.10
2022-09-21T17:21:24.644Z,71.50
2022-09-21T17:23:29.250Z,71.70
2022-09-21T17:25:32.831Z,72.30
2022-09-21T17:27:35.585Z,72.50
2022-09-21T17:29:40.163Z,72.80
2022-09-21T17:31:42.908Z,73.20
2022-09-21T17:33:47.726Z,73.40
2022-09-21T17:35:55.082Z,73.50
2022-09-21T17:37:57.831Z,73.60
2022-09-21T17:40:00.900Z,73.70
2022-09-21T17:42:07.364Z,74.00
2022-09-21T17:44:16.413Z,74.40
2022-09-21T17:46:29.107Z,74.50
2022-09-21T17:48:34.155Z,74.80
2022-09-21T17:50:37.576Z,75.10
2022-09-21T17:53:00.723Z,75.10
2022-09-21T17:55:08.320Z,75.50
2022-09-21T17:57:25.602Z,75.50
2022-09-21T17:59:32.682Z,75.70
2022-09-21T18:01:39.580Z,75.70
2022-09-21T18:03:44.731Z,75.90
2022-09-21T18:05:48.487Z,76.10
2022-09-21T18:07:53.320Z,76.00
2022-09-21T18:09:56.565Z,76.00
2022-09-21T18:12:43.214Z,75.90
2022-09-21T18:14:57.098Z,76.40
2022-09-21T18:17:14.230Z,76.40
2022-09-21T18:19:42.493Z,76.40
2022-09-21T18:21:50.536Z,76.40
2022-09-21T18:24:13.615Z,76.30
2022-09-21T18:26:17.586Z,76.10
2022-09-21T18:28:25.331Z,76.10
2022-09-21T18:30:28.682Z,76.50
2022-09-21T18:32:50.071Z,76.50
2022-09-21T18:35:22.911Z,76.70
2022-09-21T18:37:34.639Z,76.80
2022-09-21T18:39:47.667Z,76.90
2022-09-21T18:42:06.933Z,77.10
2022-09-21T18:44:16.098Z,77.00
2022-09-21T18:46:24.439Z,76.90
2022-09-21T18:48:52.780Z,77.30
2022-09-21T18:51:03.115Z,77.50
2022-09-21T18:53:13.367Z,77.60
2022-09-21T18:55:26.847Z,77.50
2022-09-21T18:57:32.332Z,77.70
2022-09-21T18:59:35.933Z,77.80
2022-09-21T19:01:39.573Z,77.70
2022-09-21T19:03:43.812Z,77.60
2022-09-21T19:05:56.128Z,77.50
2022-09-21T19:08:09.262Z,77.70
2022-09-21T19:10:18.906Z,77.80
2022-09-21T19:12:43.108Z,78.30
2022-09-21T19:14:58.096Z,77.60
2022-09-21T19:17:13.305Z,77.30
2022-09-21T19:19:29.710Z,77.50
2022-09-21T19:21:41.485Z,77.70
2022-09-21T19:24:01.934Z,78.00
2022-09-21T19:26:19.721Z,78.00
2022-09-21T19:28:49.576Z,78.00
2022-09-21T19:31:00.607Z,77.80
2022-09-21T19:33:45.524Z,77.70
2022-09-21T19:35:42.645Z,77.60
2022-09-21T19:37:47.074Z,77.40
2022-09-21T19:39:50.141Z,77.30
2022-09-21T19:42:05.232Z,77.10
2022-09-21T19:44:18.886Z,77.10
2022-09-21T19:46:34.036Z,77.80
2022-09-21T19:48:43.523Z,78.30
2022-09-21T19:50:53.826Z,78.40
2022-09-21T19:53:17.153Z,77.90
2022-09-21T19:55:39.752Z,77.80
2022-09-21T19:58:09.263Z,77.80
2022-09-21T20:00:16.724Z,77.80
2022-09-21T20:02:28.687Z,77.50
2022-09-21T20:04:36.573Z,77.60
2022-09-21T20:06:44.204Z,77.50
2022-09-21T20:08:53.822Z,77.80
2022-09-21T20:11:12.140Z,77.80
2022-09-21T20:13:24.539Z,77.70
2022-09-21T20:15:34.898Z,77.80
2022-09-21T20:17:45.459Z,77.70
2022-09-21T20:19:53.514Z,77.80
2022-09-21T20:22:00.420Z,78.10
2022-09-21T20:24:11.346Z,78.30
2022-09-21T20:26:24.949Z,78.30
2022-09-21T20:28:28.358Z,78.20
2022-09-21T20:30:35.595Z,78.00
2022-09-21T20:32:41.725Z,78.00
2022-09-21T20:34:44.970Z,78.10
2022-09-21T20:36:47.807Z,77.90
2022-09-21T20:38:50.908Z,77.90
2022-09-21T20:40:54.018Z,77.90
2022-09-21T20:42:57.421Z,78.00
2022-09-21T20:45:00.167Z,78.10
2022-09-21T20:47:04.330Z,78.10
2022-09-21T20:49:08.512Z,78.10
2022-09-21T20:51:12.141Z,78.00
2022-09-21T20:53:17.527Z,77.80
2022-09-21T20:55:20.405Z,77.70
2022-09-21T20:57:23.564Z,77.80
2022-09-21T20:59:27.170Z,77.70
2022-09-21T21:01:30.297Z,77.80
2022-09-21T21:03:34.777Z,78.00
2022-09-21T21:05:37.638Z,78.00
2022-09-21T21:07:43.372Z,77.90
2022-09-21T21:09:46.149Z,77.90
2022-09-21T21:11:48.875Z,78.00
2022-09-21T21:13:51.669Z,78.00
2022-09-21T21:15:54.567Z,77.90
2022-09-21T21:17:57.436Z,77.90
2022-09-21T21:20:01.677Z,77.80
2022-09-21T21:22:05.264Z,77.90
2022-09-21T21:24:25.567Z,77.80
2022-09-21T21:26:50.361Z,77.80
2022-09-21T21:28:52.699Z,77.90
2022-09-21T21:30:56.853Z,77.80
2022-09-21T21:33:00.112Z,77.70
2022-09-21T21:35:05.495Z,77.90
2022-09-21T21:37:09.141Z,78.10
2022-09-21T21:39:12.301Z,77.90
2022-09-21T21:41:15.329Z,77.80
2022-09-21T21:43:18.135Z,77.70
2022-09-21T21:45:21.620Z,77.80
2022-09-21T21:47:41.077Z,77.60
2022-09-21T21:49:44.326Z,77.60
2022-09-21T21:51:49.283Z,77.50
2022-09-21T21:53:52.364Z,77.40
2022-09-21T21:56:03.613Z,77.50
2022-09-21T21:58:06.912Z,77.40
2022-09-21T22:00:11.335Z,77.50
2022-09-21T22:02:15.355Z,77.60
2022-09-21T22:04:18.565Z,77.70
2022-09-21T22:06:21.648Z,77.70
2022-09-21T22:08:26.246Z,77.70
2022-09-21T22:10:29.074Z,78.40
2022-09-21T22:12:31.908Z,77.70
2022-09-21T22:14:34.572Z,77.70
2022-09-21T22:16:38.583Z,77.60
2022-09-21T22:18:42.342Z,77.50
2022-09-21T22:20:45.897Z,77.30
2022-09-21T22:22:48.594Z,77.70
2022-09-21T22:24:52.662Z,77.80
2022-09-21T22:26:55.791Z,77.80
2022-09-21T22:29:01.142Z,77.90
2022-09-21T22:31:08.552Z,77.70
2022-09-21T22:33:11.333Z,77.50
2022-09-21T22:35:14.209Z,77.60
2022-09-21T22:37:16.938Z,77.60
2022-09-21T22:39:19.937Z,77.60
2022-09-21T22:41:26.433Z,77.50
2022-09-21T22:43:29.147Z,77.60
2022-09-21T22:45:32.015Z,77.50
2022-09-21T22:47:34.809Z,77.50
2022-09-21T22:49:37.688Z,77.40
2022-09-21T22:51:40.456Z,77.50
2022-09-21T22:53:43.989Z,77.60
2022-09-21T22:55:46.784Z,77.60
2022-09-21T22:57:50.807Z,77.60
2022-09-21T22:59:53.507Z,77.60
2022-09-21T23:01:56.830Z,77.70
2022-09-21T23:04:01.338Z,77.80
2022-09-21T23:06:05.555Z,77.60
2022-09-21T23:08:08.565Z,77.60
2022-09-21T23:10:11.233Z,77.80
2022-09-21T23:12:14.017Z,77.70
2022-09-21T23:14:18.551Z,77.80
2022-09-21T23:16:24.402Z,77.80
2022-09-21T23:18:27.131Z,77.80
2022-09-21T23:20:29.795Z,77.70
2022-09-21T23:22:32.529Z,77.70
2022-09-21T23:24:35.217Z,77.70
2022-09-21T23:26:38.145Z,77.80
2022-09-21T23:28:42.201Z,77.70
2022-09-21T23:30:46.592Z,77.80
2022-09-21T23:32:52.025Z,77.70
2022-09-21T23:34:54.848Z,77.50
2022-09-21T23:36:57.678Z,77.50
2022-09-21T23:39:00.656Z,77.50
2022-09-21T23:41:05.850Z,77.50
2022-09-21T23:43:08.568Z,77.50
2022-09-21T23:45:11.411Z,77.40
2022-09-21T23:47:15.456Z,77.50
2022-09-21T23:49:18.140Z,77.40
2022-09-21T23:51:21.417Z,77.50
2022-09-21T23:53:25.149Z,77.70
2022-09-21T23:55:27.841Z,77.70
2022-09-21T23:57:30.905Z,77.60
2022-09-21T23:59:33.610Z,77.50
